createdAt,value
2022-10-13T00:01:13.497Z,101709.38
2022-10-13T00:03:41.808Z,101706.88
2022-10-13T00:06:11.108Z,101699.22
2022-10-13T00:08:38.992Z,101712.34
2022-10-13T00:11:18.358Z,101711.34
2022-10-13T00:13:46.207Z,101708.16
2022-10-13T00:16:14.882Z,101702.63
2022-10-13T00:18:41.855Z,101704.81
2022-10-13T00:21:10.943Z,101701.31
2022-10-13T00:23:38.065Z,101697.44
2022-10-13T00:26:06.957Z,101698.75
2022-10-13T00:28:33.531Z,101692.75
2022-10-13T00:31:00.180Z,101690.59
2022-10-13T00:33:26.787Z,101697.06
2022-10-13T00:35:53.654Z,101693.56
2022-10-13T00:38:21.996Z,101701.44
2022-10-13T00:40:51.554Z,101695.25
2022-10-13T00:43:45.514Z,101702.78
2022-10-13T00:46:11.883Z,101713.13
2022-10-13T00:48:38.646Z,101712.13
2022-10-13T00:51:05.720Z,101721.63
2022-10-13T00:53:36.355Z,101718.59
2022-10-13T00:56:03.366Z,101721.81
2022-10-13T00:58:31.698Z,101724.06
2022-10-13T01:00:59.103Z,101723.44
2022-10-13T01:03:26.399Z,101715.56
2022-10-13T01:05:57.081Z,101707.50
2022-10-13T01:08:23.599Z,101712.13
2022-10-13T01:10:59.198Z,101719.31
2022-10-13T01:13:28.514Z,101707.84
2022-10-13T01:16:25.024Z,101691.75
2022-10-13T01:19:21.178Z,101693.69
2022-10-13T01:22:08.612Z,101699.50
2022-10-13T01:24:52.841Z,101674.53
2022-10-13T01:27:46.364Z,101709.50
2022-10-13T01:30:20.575Z,101705.22
2022-10-13T01:33:17.090Z,101698.22
2022-10-13T01:35:52.800Z,101700.16
2022-10-13T01:38:25.184Z,101696.31
2022-10-13T01:41:12.960Z,101674.84
2022-10-13T01:43:45.619Z,101702.50
2022-10-13T01:46:26.640Z,101692.53
2022-10-13T01:48:56.396Z,101689.47
2022-10-13T01:51:25.558Z,101683.72
2022-10-13T01:53:52.095Z,101664.31
2022-10-13T01:56:18.677Z,101669.66
2022-10-13T01:58:47.953Z,101664.75
2022-10-13T02:01:22.486Z,101679.53
2022-10-13T02:04:04.982Z,101662.34
2022-10-13T02:06:34.666Z,101645.50
2022-10-13T02:09:21.318Z,101649.50
2022-10-13T02:12:05.585Z,101646.25
2022-10-13T02:14:34.962Z,101652.09
2022-10-13T02:17:04.867Z,101633.56
2022-10-13T02:19:35.834Z,101645.31
2022-10-13T02:22:03.223Z,101644.22
2022-10-13T02:24:29.853Z,101638.56
2022-10-13T02:26:56.563Z,101632.47
2022-10-13T02:29:23.460Z,101638.50
2022-10-13T02:31:49.924Z,101632.69
2022-10-13T02:34:16.562Z,101625.88
2022-10-13T02:36:43.028Z,101613.69
2022-10-13T02:39:11.026Z,101621.41
2022-10-13T02:41:37.698Z,101617.56
2022-10-13T02:44:04.624Z,101626.16
2022-10-13T02:46:31.045Z,101607.94
2022-10-13T02:48:57.689Z,101617.19
2022-10-13T02:51:24.121Z,101620.81
2022-10-13T02:53:50.592Z,101612.97
2022-10-13T02:56:17.018Z,101608.25
2022-10-13T02:58:43.542Z,101609.75
2022-10-13T03:01:12.609Z,101610.97
2022-10-13T03:03:39.613Z,101608.66
2022-10-13T03:06:06.720Z,101606.19
2022-10-13T03:08:34.764Z,101612.09
2022-10-13T03:11:01.802Z,101586.72
2022-10-13T03:13:28.335Z,101596.16
2022-10-13T03:15:54.842Z,101592.25
2022-10-13T03:18:21.373Z,101584.25
2022-10-13T03:20:56.985Z,101580.72
2022-10-13T03:23:23.462Z,101585.72
2022-10-13T03:25:49.865Z,101580.56
2022-10-13T03:28:16.279Z,101575.31
2022-10-13T03:30:42.849Z,101578.25
2022-10-13T03:33:09.344Z,101571.03
2022-10-13T03:35:36.535Z,101571.03
2022-10-13T03:38:02.935Z,101562.56
2022-10-13T03:40:29.350Z,101561.09
2022-10-13T03:42:55.751Z,101561.91
2022-10-13T03:45:22.298Z,101569.28
2022-10-13T03:47:48.707Z,101566.56
2022-10-13T03:50:15.405Z,101557.13
2022-10-13T03:52:41.862Z,101545.09
2022-10-13T03:55:08.338Z,101558.88
2022-10-13T03:57:34.801Z,101548.72
2022-10-13T04:00:01.688Z,101557.59
2022-10-13T04:02:28.071Z,101546.94
2022-10-13T04:04:54.602Z,101547.31
2022-10-13T04:07:21.054Z,101546.31
2022-10-13T04:09:47.487Z,101554.34
2022-10-13T04:12:17.167Z,101549.34
2022-10-13T04:14:46.894Z,101563.00
2022-10-13T04:17:13.289Z,101548.63
2022-10-13T04:19:39.733Z,101560.06
2022-10-13T04:22:06.147Z,101547.06
2022-10-13T04:24:32.568Z,101547.88
2022-10-13T04:26:58.967Z,101548.91
2022-10-13T04:29:25.370Z,101549.28
2022-10-13T04:31:51.900Z,101551.22
2022-10-13T04:34:18.309Z,101554.72
2022-10-13T04:36:44.777Z,101552.69
2022-10-13T04:39:11.131Z,101552.78
2022-10-13T04:41:37.582Z,101544.09
2022-10-13T04:44:06.071Z,101545.13
2022-10-13T04:46:32.472Z,101550.63
2022-10-13T04:48:58.911Z,101546.78
2022-10-13T04:51:26.500Z,101553.44
2022-10-13T04:53:57.787Z,101543.00
2022-10-13T04:56:24.827Z,101555.09
2022-10-13T04:58:51.497Z,101551.84
2022-10-13T05:01:22.403Z,101558.22
2022-10-13T05:03:58.054Z,101555.75
2022-10-13T05:06:30.667Z,101547.31
2022-10-13T05:08:57.539Z,101543.34
2022-10-13T05:11:26.574Z,101540.31
2022-10-13T05:13:53.361Z,101533.97
2022-10-13T05:16:22.178Z,101520.28
2022-10-13T05:18:50.157Z,101539.22
2022-10-13T05:21:18.983Z,101542.63
2022-10-13T05:23:46.043Z,101550.75
2022-10-13T05:26:15.791Z,101555.16
2022-10-13T05:28:42.684Z,101546.03
2022-10-13T05:31:14.842Z,101550.00
2022-10-13T05:33:42.242Z,101543.09
2022-10-13T05:36:14.887Z,101527.66
2022-10-13T05:38:41.397Z,101552.13
2022-10-13T05:41:10.632Z,101524.72
2022-10-13T05:43:39.278Z,101521.19
2022-10-13T05:46:06.765Z,101534.97
2022-10-13T05:48:33.170Z,101536.63
2022-10-13T05:51:01.883Z,101541.13
2022-10-13T05:53:32.213Z,101539.56
2022-10-13T05:56:06.222Z,101536.31
2022-10-13T05:58:43.756Z,101532.00
2022-10-13T06:01:13.457Z,101537.53
2022-10-13T06:03:42.048Z,101534.97
2022-10-13T06:06:09.494Z,101537.81
2022-10-13T06:08:36.885Z,101530.50
2022-10-13T06:11:04.050Z,101528.38
2022-10-13T06:13:30.385Z,101530.88
2022-10-13T06:15:56.804Z,101521.84
2022-10-13T06:18:23.170Z,101518.50
2022-10-13T06:20:49.623Z,101521.66
2022-10-13T06:23:16.001Z,101519.97
2022-10-13T06:25:52.610Z,101526.75
2022-10-13T06:28:19.716Z,101527.63
2022-10-13T06:30:49.524Z,101523.50
2022-10-13T06:33:15.899Z,101516.66
2022-10-13T06:35:42.290Z,101519.78
2022-10-13T06:38:09.404Z,101520.53
2022-10-13T06:40:35.816Z,101530.69
2022-10-13T06:43:02.281Z,101522.84
2022-10-13T06:45:28.811Z,101529.41
2022-10-13T06:47:55.484Z,101520.09
2022-10-13T06:50:23.064Z,101526.09
2022-10-13T06:52:49.729Z,101526.16
2022-10-13T06:55:17.556Z,101524.94
2022-10-13T06:57:44.023Z,101525.41
2022-10-13T07:00:11.077Z,101522.84
2022-10-13T07:02:37.576Z,101520.91
2022-10-13T07:05:04.157Z,101525.69
2022-10-13T07:07:30.529Z,101526.72
2022-10-13T07:09:57.091Z,101521.34
2022-10-13T07:12:23.480Z,101525.53
2022-10-13T07:14:49.921Z,101524.56
2022-10-13T07:17:16.417Z,101530.19
2022-10-13T07:19:42.858Z,101518.38
2022-10-13T07:22:09.221Z,101512.53
2022-10-13T07:24:35.565Z,101510.13
2022-10-13T07:27:07.487Z,101516.03
2022-10-13T07:29:34.372Z,101504.50
2022-10-13T07:32:00.758Z,101503.66
2022-10-13T07:34:27.230Z,101508.09
2022-10-13T07:36:53.712Z,101507.16
2022-10-13T07:39:20.061Z,101506.97
2022-10-13T07:41:50.931Z,101512.78
2022-10-13T07:44:17.891Z,101512.78
2022-10-13T07:46:44.325Z,101506.34
2022-10-13T07:49:13.727Z,101522.09
2022-10-13T07:51:43.314Z,101519.34
2022-10-13T07:54:10.261Z,101521.84
2022-10-13T07:56:36.679Z,101530.97
2022-10-13T07:59:05.221Z,101521.66
2022-10-13T08:01:32.136Z,101525.47
2022-10-13T08:03:59.220Z,101532.47
2022-10-13T08:06:26.579Z,101514.63
2022-10-13T08:08:53.058Z,101522.53
2022-10-13T08:11:20.679Z,101516.31
2022-10-13T08:13:51.894Z,101526.06
2022-10-13T08:16:18.994Z,101535.50
2022-10-13T08:18:46.281Z,101522.72
2022-10-13T08:21:45.838Z,101530.31
2022-10-13T08:24:03.555Z,101528.09
2022-10-13T08:26:31.138Z,101512.84
2022-10-13T08:29:16.573Z,101510.06
2022-10-13T08:31:44.764Z,101512.97
2022-10-13T08:34:12.265Z,101513.50
2022-10-13T08:36:39.711Z,101511.84
2022-10-13T08:39:06.803Z,101513.88
2022-10-13T08:41:39.145Z,101508.72
2022-10-13T08:47:13.233Z,101510.16
2022-10-13T08:49:42.237Z,101508.53
2022-10-13T08:52:28.536Z,101490.72
2022-10-13T08:54:56.349Z,101507.50
2022-10-13T08:57:23.808Z,101505.91
2022-10-13T08:59:52.288Z,101517.09
2022-10-13T09:02:30.517Z,101511.41
2022-10-13T09:05:02.225Z,101490.97
2022-10-13T09:07:32.775Z,101512.75
2022-10-13T09:09:59.186Z,101502.91
2022-10-13T09:12:26.378Z,101520.28
2022-10-13T09:15:03.236Z,101519.25
2022-10-13T09:17:30.072Z,101533.09
2022-10-13T09:20:07.131Z,101506.97
2022-10-13T09:22:36.461Z,101530.63
2022-10-13T09:25:09.240Z,101544.38
2022-10-13T09:27:49.504Z,101546.84
2022-10-13T09:30:27.817Z,101541.88
2022-10-13T09:33:07.228Z,101523.47
2022-10-13T09:35:35.070Z,101534.03
2022-10-13T09:38:04.299Z,101518.84
2022-10-13T09:40:32.229Z,101541.88
2022-10-13T09:43:00.934Z,101539.13
2022-10-13T09:45:30.385Z,101543.22
2022-10-13T09:48:04.772Z,101539.50
2022-10-13T09:50:33.540Z,101530.56
2022-10-13T09:53:22.927Z,101529.38
2022-10-13T09:55:49.675Z,101529.63
2022-10-13T09:58:25.316Z,101530.63
2022-10-13T10:00:53.747Z,101531.56
2022-10-13T10:03:33.596Z,101519.94
2022-10-13T10:06:07.095Z,101505.69
2022-10-13T10:09:03.867Z,101530.31
2022-10-13T10:11:39.746Z,101527.59
2022-10-13T10:14:27.324Z,101533.00
2022-10-13T10:17:17.263Z,101514.13
2022-10-13T10:20:09.877Z,101516.06
2022-10-13T10:22:52.790Z,101515.38
2022-10-13T10:25:40.063Z,101514.84
2022-10-13T10:28:22.783Z,101487.75
2022-10-13T10:31:10.472Z,101512.91
2022-10-13T10:34:01.486Z,101511.69
2022-10-13T10:36:39.990Z,101492.22
2022-10-13T10:39:29.369Z,101509.78
2022-10-13T10:42:03.518Z,101499.81
2022-10-13T10:44:35.572Z,101500.03
2022-10-13T10:47:06.770Z,101494.31
2022-10-13T10:49:36.617Z,101492.25
2022-10-13T10:52:07.062Z,101490.81
2022-10-13T10:54:49.491Z,101497.81
2022-10-13T10:57:32.194Z,101496.38
2022-10-13T11:00:06.605Z,101493.69
2022-10-13T11:02:54.564Z,101494.75
2022-10-13T11:05:22.153Z,101481.97
2022-10-13T11:07:55.806Z,101466.44
2022-10-13T11:10:24.920Z,101487.94
2022-10-13T11:12:51.347Z,101502.75
2022-10-13T11:15:42.062Z,101497.00
2022-10-13T11:18:45.910Z,101504.44
2022-10-13T11:21:12.350Z,101499.25
2022-10-13T11:23:45.402Z,101493.56
2022-10-13T11:26:31.212Z,101489.13
2022-10-13T11:28:58.872Z,101482.06
2022-10-13T11:31:32.155Z,101482.91
2022-10-13T11:34:02.450Z,101491.38
2022-10-13T11:36:44.177Z,101480.22
2022-10-13T11:39:27.619Z,101459.63
2022-10-13T11:42:12.387Z,101467.28
2022-10-13T11:44:57.943Z,101454.28
2022-10-13T11:47:30.524Z,101462.75
2022-10-13T11:50:39.555Z,101468.56
2022-10-13T11:53:22.836Z,101464.16
2022-10-13T11:55:57.534Z,101454.91
2022-10-13T11:58:31.862Z,101449.31
2022-10-13T12:01:06.637Z,101433.97
2022-10-13T12:03:34.578Z,101449.56
2022-10-13T12:06:05.020Z,101443.78
2022-10-13T12:08:34.652Z,101421.00
2022-10-13T12:11:07.476Z,101434.06
2022-10-13T12:13:35.917Z,101434.47
2022-10-13T12:16:07.253Z,101421.28
2022-10-13T12:18:38.081Z,101444.81
2022-10-13T12:21:21.264Z,101442.84
2022-10-13T12:23:49.933Z,101450.22
2022-10-13T12:26:21.585Z,101438.44
2022-10-13T12:29:02.109Z,101441.28
2022-10-13T12:31:38.333Z,101438.34
2022-10-13T12:34:05.204Z,101447.19
2022-10-13T12:36:34.053Z,101441.00
2022-10-13T12:39:07.807Z,101439.34
2022-10-13T12:41:42.237Z,101442.84
2022-10-13T12:44:14.832Z,101447.19
2022-10-13T12:46:58.711Z,101430.91
2022-10-13T12:49:27.089Z,101444.25
2022-10-13T12:52:20.174Z,101416.34
2022-10-13T12:54:52.252Z,101434.75
2022-10-13T12:57:21.698Z,101446.09
2022-10-13T12:59:48.342Z,101433.06
2022-10-13T13:02:22.569Z,101435.31
2022-10-13T13:04:49.179Z,101447.13
2022-10-13T13:07:36.863Z,101447.56
2022-10-13T13:10:09.344Z,101446.94
2022-10-13T13:12:36.899Z,101432.81
2022-10-13T13:15:30.667Z,101449.16
2022-10-13T13:18:36.754Z,101444.25
2022-10-13T13:21:14.521Z,101432.19
2022-10-13T13:23:42.613Z,101447.13
2022-10-13T13:26:13.067Z,101454.13
2022-10-13T13:28:44.600Z,101450.00
2022-10-13T13:31:12.908Z,101449.41
2022-10-13T13:33:40.125Z,101451.63
2022-10-13T13:36:21.928Z,101443.78
2022-10-13T13:38:49.435Z,101450.63
2022-10-13T13:41:16.917Z,101447.97
2022-10-13T13:43:43.472Z,101443.78
2022-10-13T13:46:17.068Z,101438.81
2022-10-13T13:48:43.647Z,101444.00
2022-10-13T13:51:10.499Z,101440.06
2022-10-13T13:53:37.021Z,101429.63
2022-10-13T13:56:03.625Z,101447.63
2022-10-13T13:58:30.019Z,101443.09
2022-10-13T14:00:56.472Z,101427.78
2022-10-13T14:03:22.809Z,101437.97
2022-10-13T14:05:49.251Z,101442.59
2022-10-13T14:08:15.650Z,101429.19
2022-10-13T14:10:42.161Z,101429.84
2022-10-13T14:13:08.509Z,101432.53
2022-10-13T14:15:34.947Z,101435.19
2022-10-13T14:18:01.371Z,101420.97
2022-10-13T14:20:27.882Z,101419.13
2022-10-13T14:22:54.421Z,101426.13
2022-10-13T14:25:20.880Z,101422.25
2022-10-13T14:27:47.355Z,101424.34
2022-10-13T14:30:14.170Z,101424.59
2022-10-13T14:32:40.622Z,101418.47
2022-10-13T14:35:07.372Z,101410.63
2022-10-13T14:37:35.307Z,101417.25
2022-10-13T14:40:02.044Z,101414.63
2022-10-13T14:42:28.498Z,101406.19
2022-10-13T14:44:54.864Z,101406.00
2022-10-13T14:47:21.669Z,101392.19
2022-10-13T14:49:48.251Z,101385.25
2022-10-13T14:52:14.737Z,101383.19
2022-10-13T14:54:44.852Z,101384.78
2022-10-13T14:57:15.643Z,101393.63
2022-10-13T14:59:42.641Z,101391.53
2022-10-13T15:02:13.212Z,101395.03
2022-10-13T15:04:39.919Z,101384.69
2022-10-13T15:07:06.346Z,101385.78
2022-10-13T15:09:45.220Z,101387.88
2022-10-13T15:12:19.486Z,101371.94
2022-10-13T15:14:47.198Z,101370.91
2022-10-13T15:17:13.625Z,101383.50
2022-10-13T15:19:39.975Z,101382.47
2022-10-13T15:22:06.374Z,101379.09
2022-10-13T15:24:32.736Z,101390.06
2022-10-13T15:26:59.118Z,101393.00
2022-10-13T15:29:25.593Z,101397.72
2022-10-13T15:31:52.083Z,101389.66
2022-10-13T15:34:18.525Z,101401.22
2022-10-13T15:36:45.197Z,101402.69
2022-10-13T15:39:11.854Z,101392.78
2022-10-13T15:41:38.229Z,101399.25
2022-10-13T15:44:05.654Z,101400.06
2022-10-13T15:46:32.087Z,101404.22
2022-10-13T15:48:59.918Z,101381.63
2022-10-13T15:51:27.073Z,101391.94
2022-10-13T15:53:55.097Z,101398.41
2022-10-13T15:56:21.461Z,101391.44
2022-10-13T15:58:47.903Z,101403.44
2022-10-13T16:01:14.630Z,101395.53
2022-10-13T16:03:41.660Z,101399.28
2022-10-13T16:06:10.309Z,101393.09
2022-10-13T16:08:39.490Z,101382.75
2022-10-13T16:11:10.445Z,101392.06
2022-10-13T16:13:37.173Z,101392.63
2022-10-13T16:16:03.842Z,101397.31
2022-10-13T16:18:33.908Z,101399.38
2022-10-13T16:21:00.453Z,101397.25
2022-10-13T16:23:27.633Z,101402.81
2022-10-13T16:25:54.090Z,101400.09
2022-10-13T16:28:20.565Z,101392.38
2022-10-13T16:30:46.973Z,101395.72
2022-10-13T16:33:13.402Z,101395.72
2022-10-13T16:35:39.832Z,101397.34
2022-10-13T16:38:06.364Z,101404.31
2022-10-13T16:40:32.846Z,101411.69
2022-10-13T16:42:59.231Z,101411.91
2022-10-13T16:45:41.402Z,101413.31
2022-10-13T16:48:12.749Z,101421.56
2022-10-13T16:50:39.217Z,101419.22
2022-10-13T16:53:05.686Z,101426.47
2022-10-13T16:55:32.057Z,101429.13
2022-10-13T16:57:58.438Z,101434.69
2022-10-13T17:00:24.878Z,101426.28
2022-10-13T17:02:51.473Z,101434.97
2022-10-13T17:05:17.900Z,101438.44
2022-10-13T17:07:44.286Z,101443.53
2022-10-13T17:10:11.681Z,101434.69
2022-10-13T17:12:38.084Z,101429.06
2022-10-13T17:15:04.975Z,101439.22
2022-10-13T17:17:31.489Z,101432.28
2022-10-13T17:19:57.950Z,101445.22
2022-10-13T17:22:24.329Z,101446.06
2022-10-13T17:24:50.733Z,101448.47
2022-10-13T17:27:17.160Z,101457.06
2022-10-13T17:29:43.614Z,101451.06
2022-10-13T17:32:10.341Z,101454.00
2022-10-13T17:34:36.937Z,101445.63
2022-10-13T17:37:04.561Z,101444.97
2022-10-13T17:39:31.298Z,101454.00
2022-10-13T17:41:57.789Z,101452.81
2022-10-13T17:44:24.223Z,101448.13
2022-10-13T17:46:50.725Z,101431.34
2022-10-13T17:49:18.152Z,101439.28
2022-10-13T17:51:45.532Z,101443.03
2022-10-13T17:54:16.015Z,101440.34
2022-10-13T17:56:43.633Z,101464.53
2022-10-13T17:59:10.181Z,101458.03
2022-10-13T18:01:37.174Z,101470.41
2022-10-13T18:04:09.907Z,101463.22
2022-10-13T18:06:40.599Z,101453.78
2022-10-13T18:09:10.170Z,101462.44
2022-10-13T18:11:37.228Z,101466.88
2022-10-13T18:14:04.991Z,101467.09
2022-10-13T18:16:35.523Z,101466.75
2022-10-13T18:19:02.683Z,101477.28
2022-10-13T18:21:29.468Z,101465.38
2022-10-13T18:24:01.412Z,101480.88
2022-10-13T18:26:31.777Z,101486.59
2022-10-13T18:28:58.277Z,101475.06
2022-10-13T18:31:27.918Z,101484.28
2022-10-13T18:33:56.339Z,101480.94
2022-10-13T18:36:28.178Z,101483.44
2022-10-13T18:38:56.646Z,101482.97
2022-10-13T18:41:24.185Z,101476.16
2022-10-13T18:43:50.820Z,101473.56
2022-10-13T18:46:17.636Z,101467.38
2022-10-13T18:48:44.130Z,101473.75
2022-10-13T18:51:13.335Z,101476.56
2022-10-13T18:53:41.709Z,101445.66
2022-10-13T18:56:12.072Z,101472.25
2022-10-13T18:58:38.538Z,101462.28
2022-10-13T19:01:08.697Z,101458.28
2022-10-13T19:03:36.961Z,101464.59
2022-10-13T19:06:04.627Z,101474.25
2022-10-13T19:08:31.029Z,101473.78
2022-10-13T19:10:57.969Z,101470.63
2022-10-13T19:13:26.090Z,101481.31
2022-10-13T19:15:59.467Z,101475.88
2022-10-13T19:18:25.862Z,101467.06
2022-10-13T19:20:53.408Z,101475.94
2022-10-13T19:23:19.990Z,101479.44
2022-10-13T19:25:46.472Z,101472.59
2022-10-13T19:28:13.017Z,101478.53
2022-10-13T19:30:39.807Z,101480.91
2022-10-13T19:33:07.705Z,101475.63
2022-10-13T19:35:42.231Z,101471.00
2022-10-13T19:38:08.849Z,101483.81
2022-10-13T19:40:40.077Z,101483.81
2022-10-13T19:43:09.407Z,101470.84
2022-10-13T19:45:36.158Z,101494.63
2022-10-13T19:48:02.566Z,101492.81
2022-10-13T19:50:29.048Z,101504.84
2022-10-13T19:52:55.460Z,101497.19
2022-10-13T19:55:21.951Z,101503.88
2022-10-13T19:57:48.358Z,101500.22
2022-10-13T20:00:16.317Z,101491.25
2022-10-13T20:02:42.701Z,101494.91
2022-10-13T20:05:09.306Z,101495.63
2022-10-13T20:07:35.811Z,101493.66
2022-10-13T20:10:02.248Z,101492.81
2022-10-13T20:12:29.244Z,101490.34
2022-10-13T20:14:55.705Z,101493.84
2022-10-13T20:17:22.276Z,101496.34
2022-10-13T20:19:48.981Z,101490.06
2022-10-13T20:22:15.375Z,101500.09
2022-10-13T20:24:41.713Z,101486.75
2022-10-13T20:27:08.069Z,101498.53
2022-10-13T20:29:34.684Z,101496.84
2022-10-13T20:32:01.171Z,101498.00
2022-10-13T20:34:27.565Z,101503.28
2022-10-13T20:36:53.985Z,101502.91
2022-10-13T20:39:20.385Z,101500.59
2022-10-13T20:41:46.779Z,101517.94
2022-10-13T20:44:13.350Z,101509.75
2022-10-13T20:46:39.969Z,101509.75
2022-10-13T20:49:10.893Z,101503.56
2022-10-13T20:51:38.989Z,101505.25
2022-10-13T20:54:06.071Z,101501.56
2022-10-13T20:56:32.464Z,101500.22
2022-10-13T20:59:03.547Z,101493.72
2022-10-13T21:01:29.973Z,101491.06
2022-10-13T21:03:56.554Z,101500.88
2022-10-13T21:06:24.917Z,101496.03
2022-10-13T21:08:52.115Z,101493.19
2022-10-13T21:11:20.465Z,101492.22
2022-10-13T21:13:48.460Z,101487.84
2022-10-13T21:16:23.435Z,101482.69
2022-10-13T21:18:51.528Z,101482.22
2022-10-13T21:21:20.893Z,101470.41
2022-10-13T21:23:51.475Z,101478.94
2022-10-13T21:26:21.583Z,101466.28
2022-10-13T21:28:49.063Z,101477.28
2022-10-13T21:31:17.435Z,101471.28
2022-10-13T21:33:44.138Z,101472.69
2022-10-13T21:36:17.104Z,101452.09
2022-10-13T21:38:45.274Z,101475.72
2022-10-13T21:41:13.737Z,101469.22
2022-10-13T21:43:40.470Z,101460.91
2022-10-13T21:46:21.575Z,101461.13
2022-10-13T21:48:48.962Z,101468.47
2022-10-13T21:51:22.293Z,101447.47
2022-10-13T21:54:04.774Z,101465.44
2022-10-13T21:56:32.590Z,101465.06
2022-10-13T21:58:59.036Z,101474.75
2022-10-13T22:01:25.772Z,101461.91
2022-10-13T22:03:55.234Z,101442.97
2022-10-13T22:06:21.738Z,101457.53
2022-10-13T22:08:50.692Z,101458.72
2022-10-13T22:11:18.127Z,101452.72
2022-10-13T22:13:44.925Z,101458.91
2022-10-13T22:16:17.499Z,101462.75
2022-10-13T22:18:44.693Z,101458.47
2022-10-13T22:21:17.885Z,101449.16
2022-10-13T22:23:46.729Z,101448.97
2022-10-13T22:26:14.648Z,101449.28
2022-10-13T22:28:41.142Z,101457.63
2022-10-13T22:31:10.200Z,101448.00
2022-10-13T22:33:38.286Z,101453.66
2022-10-13T22:36:16.383Z,101452.31
2022-10-13T22:38:47.317Z,101449.66
2022-10-13T22:41:14.989Z,101450.19
2022-10-13T22:43:44.086Z,101436.84
2022-10-13T22:46:15.321Z,101440.50
2022-10-13T22:48:41.924Z,101445.00
2022-10-13T22:51:09.418Z,101438.66
2022-10-13T22:53:36.556Z,101431.81
2022-10-13T22:56:12.929Z,101432.66
2022-10-13T22:58:39.367Z,101432.16
2022-10-13T23:01:08.605Z,101431.03
2022-10-13T23:03:36.158Z,101426.19
2022-10-13T23:06:03.342Z,101425.00
2022-10-13T23:08:30.378Z,101414.72
2022-10-13T23:10:57.915Z,101406.56
2022-10-13T23:13:24.833Z,101410.03
2022-10-13T23:15:51.242Z,101407.06
2022-10-13T23:18:17.569Z,101403.91
2022-10-13T23:20:43.946Z,101406.41
2022-10-13T23:23:10.347Z,101404.88
2022-10-13T23:25:37.842Z,101405.22
2022-10-13T23:28:04.975Z,101404.53
2022-10-13T23:30:31.525Z,101406.88
2022-10-13T23:32:57.888Z,101412.72
2022-10-13T23:35:24.439Z,101402.19
2022-10-13T23:37:52.699Z,101403.19
2022-10-13T23:40:19.456Z,101407.88
2022-10-13T23:42:46.012Z,101408.03
2022-10-13T23:45:12.398Z,101406.72
2022-10-13T23:47:38.807Z,101418.69
2022-10-13T23:50:05.753Z,101404.38
2022-10-13T23:52:32.178Z,101398.84
2022-10-13T23:54:58.522Z,101401.34
2022-10-13T23:57:24.973Z,101403.66
2022-10-13T23:59:51.375Z,101406.16
